createdAt,value
2019-03-23T00:02:36.890Z,42.35
2019-03-23T00:05:16.360Z,41.40
2019-03-23T00:07:54.559Z,41.13
2019-03-23T00:10:35.957Z,42.17
2019-03-23T00:13:16.277Z,43.15
2019-03-23T00:15:56.638Z,41.13
2019-03-23T00:18:37.666Z,41.37
2019-03-23T00:21:16.914Z,40.65
2019-03-23T00:23:55.894Z,41.70
2019-03-23T00:26:36.084Z,40.98
2019-03-23T00:29:17.055Z,42.48
2019-03-23T00:31:55.302Z,42.98
2019-03-23T00:34:34.269Z,42.62
2019-03-23T00:37:13.038Z,42.03
2019-03-23T00:39:51.247Z,43.15
2019-03-23T00:42:34.499Z,43.70
2019-03-23T00:45:14.786Z,41.85
2019-03-23T00:47:53.362Z,43.45
2019-03-23T00:50:33.725Z,40.63
2019-03-23T00:53:19.537Z,42.00
2019-03-23T00:55:59.682Z,42.40
2019-03-23T00:58:38.799Z,41.55
2019-03-23T01:01:20.627Z,40.98
2019-03-23T01:04:00.777Z,39.63
2019-03-23T01:06:39.960Z,42.23
2019-03-23T01:09:18.815Z,41.75
2019-03-23T01:11:57.443Z,39.30
2019-03-23T01:14:35.611Z,40.30
2019-03-23T01:17:14.588Z,39.67
2019-03-23T01:19:54.581Z,37.30
2019-03-23T01:22:35.098Z,36.40
2019-03-23T01:25:17.267Z,37.13
2019-03-23T01:27:57.359Z,36.13
2019-03-23T01:30:36.525Z,35.30
2019-03-23T01:33:20.258Z,34.70
2019-03-23T01:35:59.769Z,35.65
2019-03-23T01:38:41.895Z,34.33
2019-03-23T01:41:21.060Z,34.92
2019-03-23T01:44:02.040Z,32.15
2019-03-23T01:46:41.458Z,35.23
2019-03-23T01:49:21.802Z,34.90
2019-03-23T01:52:00.966Z,35.33
2019-03-23T01:54:39.238Z,34.85
2019-03-23T01:57:26.359Z,33.13
2019-03-23T02:00:07.896Z,32.78
2019-03-23T02:02:47.691Z,32.67
2019-03-23T02:05:31.650Z,31.75
2019-03-23T02:08:14.746Z,32.65
2019-03-23T02:10:55.458Z,33.25
2019-03-23T02:13:36.644Z,33.40
2019-03-23T02:16:16.205Z,34.45
2019-03-23T02:18:55.197Z,34.95
2019-03-23T02:21:35.592Z,34.20
2019-03-23T02:24:14.298Z,30.20
2019-03-23T02:26:53.271Z,31.42
2019-03-23T02:29:33.768Z,32.17
2019-03-23T02:32:12.680Z,29.23
2019-03-23T02:34:51.738Z,32.60
2019-03-23T02:37:32.527Z,30.90
2019-03-23T02:40:12.504Z,31.40
2019-03-23T02:42:53.708Z,30.10
2019-03-23T02:45:32.319Z,27.75
2019-03-23T02:48:11.129Z,30.17
2019-03-23T02:50:50.576Z,29.82
2019-03-23T02:53:31.283Z,31.45
2019-03-23T02:56:10.406Z,28.45
2019-03-23T02:58:49.144Z,28.95
2019-03-23T03:01:31.948Z,31.62
2019-03-23T03:04:16.501Z,30.45
2019-03-23T03:06:57.715Z,30.88
2019-03-23T03:09:41.370Z,31.55
2019-03-23T03:12:23.073Z,31.93
2019-03-23T03:15:03.412Z,30.75
2019-03-23T03:17:42.508Z,29.77
2019-03-23T03:20:21.404Z,29.42
2019-03-23T03:23:04.660Z,31.05
2019-03-23T03:25:44.705Z,29.40
2019-03-23T03:28:24.503Z,30.05
2019-03-23T03:31:03.426Z,31.37
2019-03-23T03:33:42.827Z,31.15
2019-03-23T03:36:25.072Z,31.60
2019-03-23T03:39:03.889Z,33.58
2019-03-23T03:41:43.543Z,31.15
2019-03-23T03:44:23.624Z,30.37
2019-03-23T03:47:08.519Z,32.23
2019-03-23T03:49:55.958Z,31.37
2019-03-23T03:52:36.674Z,31.23
2019-03-23T03:55:16.560Z,32.00
2019-03-23T03:57:58.671Z,31.33
2019-03-23T04:00:37.778Z,31.68
2019-03-23T04:03:17.634Z,32.10
2019-03-23T04:05:57.903Z,30.52
2019-03-23T04:08:38.348Z,30.50
2019-03-23T04:11:18.057Z,31.33
2019-03-23T04:13:58.861Z,31.35
2019-03-23T04:16:37.143Z,31.35
2019-03-23T04:19:16.279Z,32.85
2019-03-23T04:22:03.825Z,31.35
2019-03-23T04:24:43.066Z,31.73
2019-03-23T04:27:21.350Z,32.17
2019-03-23T04:30:02.610Z,33.25
2019-03-23T04:32:42.286Z,31.50
2019-03-23T04:35:20.522Z,30.25
2019-03-23T04:37:59.248Z,30.80
2019-03-23T04:40:39.196Z,32.17
2019-03-23T04:43:18.392Z,29.85
2019-03-23T04:45:58.463Z,31.12
2019-03-23T04:48:38.428Z,30.15
2019-03-23T04:51:17.598Z,30.23
2019-03-23T04:53:58.520Z,31.10
2019-03-23T04:56:37.792Z,30.80
2019-03-23T04:59:16.556Z,31.20
2019-03-23T05:01:57.936Z,29.63
2019-03-23T05:04:41.125Z,32.35
2019-03-23T05:09:59.821Z,30.70
2019-03-23T05:12:42.435Z,31.17
2019-03-23T05:15:20.485Z,31.40
2019-03-23T05:18:00.427Z,29.87
2019-03-23T05:20:41.257Z,30.17
2019-03-23T05:23:20.323Z,29.35
2019-03-23T05:25:59.710Z,26.80
2019-03-23T05:31:17.396Z,27.98
2019-03-23T05:33:56.160Z,29.25
2019-03-23T05:36:35.360Z,28.80
2019-03-23T05:39:14.429Z,28.87
2019-03-23T05:41:55.208Z,28.67
2019-03-23T05:44:35.038Z,28.62
2019-03-23T05:47:16.602Z,27.98
2019-03-23T05:49:57.191Z,25.62
2019-03-23T05:52:36.085Z,26.02
2019-03-23T05:55:15.623Z,28.23
2019-03-23T05:57:55.713Z,28.98
2019-03-23T06:00:35.138Z,29.50
2019-03-23T06:03:21.143Z,25.92
2019-03-23T06:06:00.584Z,27.87
2019-03-23T06:08:39.681Z,27.32
2019-03-23T06:11:18.705Z,26.50
2019-03-23T06:13:56.706Z,24.65
2019-03-23T06:16:39.491Z,24.37
2019-03-23T06:19:18.915Z,24.70
2019-03-23T06:22:09.097Z,24.52
2019-03-23T06:24:47.697Z,25.57
2019-03-23T06:27:27.507Z,24.90
2019-03-23T06:30:10.786Z,24.63
2019-03-23T06:32:49.503Z,23.95
2019-03-23T06:35:29.024Z,23.15
2019-03-23T06:38:08.994Z,25.10
2019-03-23T06:40:55.315Z,24.72
2019-03-23T06:43:35.275Z,24.90
2019-03-23T06:46:19.443Z,23.47
2019-03-23T06:49:02.049Z,23.95
2019-03-23T06:51:42.036Z,23.95
2019-03-23T06:54:23.722Z,24.67
2019-03-23T06:57:03.625Z,26.25
2019-03-23T06:59:44.121Z,24.80
2019-03-23T07:02:28.125Z,25.35
2019-03-23T07:05:06.724Z,25.12
2019-03-23T07:07:45.887Z,23.20
2019-03-23T07:10:26.171Z,25.10
2019-03-23T07:13:07.709Z,25.10
2019-03-23T07:15:51.988Z,24.70
2019-03-23T07:18:31.229Z,22.60
2019-03-23T07:23:52.054Z,22.40
2019-03-23T07:26:32.141Z,21.48
2019-03-23T07:29:11.757Z,22.70
2019-03-23T07:31:51.375Z,23.30
2019-03-23T07:34:35.965Z,24.10
2019-03-23T07:37:14.413Z,23.38
2019-03-23T07:40:00.461Z,23.15
2019-03-23T07:42:40.601Z,23.42
2019-03-23T07:45:21.484Z,22.98
2019-03-23T07:48:01.422Z,22.40
2019-03-23T07:50:40.021Z,21.82
2019-03-23T07:53:19.164Z,21.30
2019-03-23T07:55:58.259Z,22.37
2019-03-23T07:58:38.869Z,23.50
2019-03-23T08:01:17.544Z,22.85
2019-03-23T08:03:58.018Z,23.85
2019-03-23T08:06:40.803Z,23.92
2019-03-23T08:09:23.495Z,25.17
2019-03-23T08:14:38.937Z,25.77
2019-03-23T08:17:18.115Z,24.90
2019-03-23T08:19:56.228Z,24.45
2019-03-23T08:22:35.930Z,24.32
2019-03-23T08:25:14.981Z,23.47
2019-03-23T08:27:56.771Z,24.95
2019-03-23T08:30:45.226Z,26.33
2019-03-23T08:33:25.546Z,24.35
2019-03-23T08:36:11.569Z,25.75
2019-03-23T08:38:54.030Z,24.18
2019-03-23T08:41:35.169Z,25.77
2019-03-23T08:44:17.072Z,25.37
2019-03-23T08:46:56.195Z,24.40
2019-03-23T08:49:37.949Z,25.68
2019-03-23T08:52:17.144Z,26.57
2019-03-23T08:54:56.068Z,24.82
2019-03-23T08:57:34.352Z,24.95
2019-03-23T09:00:17.070Z,25.05
2019-03-23T09:03:03.832Z,25.60
2019-03-23T09:05:42.480Z,25.45
2019-03-23T09:08:24.205Z,24.47
2019-03-23T09:11:04.840Z,27.82
2019-03-23T09:13:44.294Z,27.58
2019-03-23T09:16:23.315Z,27.27
2019-03-23T09:19:05.421Z,26.45
2019-03-23T09:21:44.985Z,25.97
2019-03-23T09:24:23.060Z,25.72
2019-03-23T09:27:02.090Z,26.75
2019-03-23T09:29:41.469Z,25.45
2019-03-23T09:32:23.599Z,26.93
2019-03-23T09:35:03.726Z,25.27
2019-03-23T09:37:45.137Z,26.00
2019-03-23T09:40:23.891Z,26.12
2019-03-23T09:43:02.804Z,25.60
2019-03-23T09:45:41.806Z,24.70
2019-03-23T09:48:20.862Z,23.90
2019-03-23T09:51:00.196Z,24.82
2019-03-23T09:53:41.045Z,26.60
2019-03-23T09:56:20.998Z,24.35
2019-03-23T09:58:59.383Z,25.17
2019-03-23T10:01:41.920Z,27.98
2019-03-23T10:04:20.566Z,26.65
2019-03-23T10:07:02.329Z,27.93
2019-03-23T10:09:41.559Z,26.25
2019-03-23T10:12:22.740Z,27.82
2019-03-23T10:15:02.071Z,27.10
2019-03-23T10:17:41.994Z,26.02
2019-03-23T10:20:21.131Z,27.50
2019-03-23T10:23:02.120Z,29.05
2019-03-23T10:25:42.036Z,28.70
2019-03-23T10:28:22.544Z,26.68
2019-03-23T10:31:02.504Z,26.70
2019-03-23T10:33:43.330Z,26.60
2019-03-23T10:36:24.195Z,26.95
2019-03-23T10:39:06.907Z,25.90
2019-03-23T10:41:46.789Z,28.32
2019-03-23T10:44:26.482Z,26.57
2019-03-23T10:47:15.341Z,27.37
2019-03-23T10:49:56.543Z,25.37
2019-03-23T10:52:37.025Z,26.07
2019-03-23T11:30:01.612Z,24.65
2019-03-23T11:32:45.287Z,23.83
2019-03-23T11:35:26.782Z,26.55
2019-03-23T11:38:22.860Z,27.93
2019-03-23T11:41:23.376Z,26.52
2019-03-23T11:54:48.619Z,27.62
2019-03-23T11:57:27.273Z,26.60
2019-03-23T12:00:09.153Z,26.70
2019-03-23T12:02:49.079Z,27.15
2019-03-23T12:05:28.494Z,29.12
2019-03-23T12:08:07.283Z,30.25
2019-03-23T12:10:45.782Z,30.37
2019-03-23T12:13:25.145Z,27.40
2019-03-23T12:16:04.278Z,27.02
2019-03-23T12:18:44.167Z,27.65
2019-03-23T12:21:23.766Z,26.60
2019-03-23T12:24:03.067Z,28.67
2019-03-23T12:26:42.001Z,28.98
2019-03-23T12:29:22.032Z,27.95
2019-03-23T12:32:00.588Z,28.83
2019-03-23T12:34:39.735Z,29.25
2019-03-23T12:37:18.137Z,28.77
2019-03-23T12:39:57.565Z,28.70
2019-03-23T12:42:37.876Z,30.08
2019-03-23T12:45:17.925Z,30.62
2019-03-23T12:47:59.087Z,29.35
2019-03-23T12:50:38.478Z,26.10
2019-03-23T12:53:19.382Z,25.77
2019-03-23T12:56:00.864Z,27.65
2019-03-23T12:58:48.126Z,25.57
2019-03-23T13:01:28.494Z,26.90
2019-03-23T13:04:08.832Z,26.87
2019-03-23T13:06:48.084Z,26.30
2019-03-23T13:09:45.643Z,27.55
2019-03-23T13:12:24.916Z,28.32
2019-03-23T13:15:04.002Z,29.48
2019-03-23T13:17:43.499Z,27.55
2019-03-23T13:20:25.543Z,27.85
2019-03-23T13:25:42.527Z,27.07
2019-03-23T13:28:31.366Z,22.42
2019-03-23T13:31:10.137Z,26.30
2019-03-23T13:33:49.524Z,24.77
2019-03-23T13:36:30.863Z,24.95
2019-03-23T13:39:11.554Z,24.15
2019-03-23T13:44:33.448Z,23.85
2019-03-23T13:47:15.068Z,24.60
2019-03-23T13:49:54.343Z,23.50
2019-03-23T13:52:33.026Z,22.55
2019-03-23T13:55:14.308Z,21.80
2019-03-23T13:57:53.413Z,24.92
2019-03-23T14:00:32.475Z,23.73
2019-03-23T14:03:12.158Z,23.65
2019-03-23T14:05:51.183Z,26.52
2019-03-23T14:08:29.558Z,27.15
2019-03-23T14:11:08.986Z,27.77
2019-03-23T14:13:47.864Z,26.15
2019-03-23T14:16:26.307Z,27.65
2019-03-23T14:19:05.545Z,27.05
2019-03-23T14:21:46.336Z,26.40
2019-03-23T14:24:24.685Z,26.57
2019-03-23T14:27:05.501Z,25.50
2019-03-23T14:29:45.496Z,26.05
2019-03-23T14:32:25.978Z,25.50
2019-03-23T14:35:04.976Z,25.62
2019-03-23T14:37:44.213Z,25.95
2019-03-23T14:40:22.929Z,26.15
2019-03-23T14:43:03.085Z,27.27
2019-03-23T14:45:44.035Z,26.27
2019-03-23T14:48:25.562Z,28.45
2019-03-23T14:51:04.413Z,27.63
2019-03-23T14:53:43.998Z,27.35
2019-03-23T14:56:24.314Z,27.40
2019-03-23T14:59:03.137Z,27.15
2019-03-23T15:01:41.753Z,26.52
2019-03-23T15:04:20.733Z,26.82
2019-03-23T15:07:00.275Z,27.32
2019-03-23T15:09:40.574Z,27.37
2019-03-23T15:12:19.426Z,26.48
2019-03-23T15:14:58.502Z,26.70
2019-03-23T15:17:37.555Z,26.35
2019-03-23T15:20:16.763Z,26.75
2019-03-23T15:22:54.884Z,27.85
2019-03-23T15:25:33.930Z,27.93
2019-03-23T15:28:13.982Z,27.77
2019-03-23T15:30:52.601Z,26.62
2019-03-23T15:33:31.104Z,26.82
2019-03-23T15:36:11.787Z,27.70
2019-03-23T15:38:53.809Z,26.45
2019-03-23T15:41:33.426Z,25.88
2019-03-23T15:44:12.037Z,26.45
2019-03-23T15:46:51.467Z,25.92
2019-03-23T15:49:30.243Z,26.37
2019-03-23T15:52:08.707Z,24.27
2019-03-23T15:54:46.912Z,25.20
2019-03-23T15:57:27.892Z,24.57
2019-03-23T16:00:09.311Z,25.60
2019-03-23T16:02:48.380Z,24.97
2019-03-23T16:05:27.342Z,24.40
2019-03-23T16:08:06.861Z,25.35
2019-03-23T16:10:46.742Z,26.33
2019-03-23T16:13:26.273Z,25.23
2019-03-23T16:16:05.542Z,24.90
2019-03-23T16:18:47.655Z,23.38
2019-03-23T16:24:02.339Z,24.45
2019-03-23T16:26:40.682Z,25.10
2019-03-23T16:29:26.631Z,25.25
2019-03-23T16:32:05.391Z,25.15
2019-03-23T16:34:44.596Z,25.88
2019-03-23T16:37:24.370Z,26.27
2019-03-23T16:40:02.794Z,25.75
2019-03-23T16:42:45.439Z,26.17
2019-03-23T16:45:22.873Z,26.57
2019-03-23T16:48:01.036Z,25.52
2019-03-23T16:50:41.167Z,25.43
2019-03-23T16:53:19.614Z,26.62
2019-03-23T16:55:58.677Z,27.50
2019-03-23T16:58:38.070Z,28.30
2019-03-23T17:01:18.035Z,26.23
2019-03-23T17:04:02.890Z,26.95
2019-03-23T17:06:46.513Z,30.15
2019-03-23T17:09:28.065Z,27.90
2019-03-23T17:12:08.322Z,28.35
2019-03-23T17:14:49.612Z,28.42
2019-03-23T17:17:29.794Z,30.30
2019-03-23T17:20:11.430Z,30.32
2019-03-23T17:22:51.955Z,29.37
2019-03-23T17:25:30.958Z,29.02
2019-03-23T17:28:10.325Z,29.02
2019-03-23T17:30:49.105Z,30.43
2019-03-23T17:33:34.338Z,28.38
2019-03-23T17:36:12.209Z,29.57
2019-03-23T17:38:51.877Z,30.08
2019-03-23T17:41:30.610Z,32.08
2019-03-23T17:44:12.300Z,32.85
2019-03-23T17:46:51.446Z,30.30
2019-03-23T17:49:31.288Z,33.58
2019-03-23T17:52:09.525Z,34.83
2019-03-23T17:54:50.975Z,36.65
2019-03-23T17:57:30.462Z,34.70
2019-03-23T18:00:14.201Z,39.23
2019-03-23T18:02:52.714Z,39.35
2019-03-23T18:05:31.479Z,40.25
2019-03-23T18:08:10.335Z,37.88
2019-03-23T18:10:50.213Z,39.40
2019-03-23T18:13:28.264Z,43.38
2019-03-23T18:16:08.258Z,42.93
2019-03-23T18:18:47.708Z,43.98
2019-03-23T18:21:26.192Z,41.37
2019-03-23T18:24:05.217Z,42.75
2019-03-23T18:26:44.426Z,42.43
2019-03-23T18:29:24.260Z,40.98
2019-03-23T18:32:03.804Z,40.75
2019-03-23T18:34:46.816Z,43.28
2019-03-23T18:37:26.473Z,42.08
2019-03-23T18:40:08.284Z,43.95
2019-03-23T18:42:45.668Z,42.00
2019-03-23T18:45:25.633Z,43.33
2019-03-23T18:48:05.775Z,41.73
2019-03-23T18:50:45.678Z,40.33
2019-03-23T18:53:24.665Z,41.85
2019-03-23T18:56:03.272Z,41.53
2019-03-23T18:58:42.319Z,38.95
2019-03-23T19:01:21.877Z,39.10
2019-03-23T19:04:00.822Z,40.45
2019-03-23T19:06:39.435Z,40.80
2019-03-23T19:09:19.076Z,41.73
2019-03-23T19:11:57.598Z,41.95
2019-03-23T19:14:36.690Z,41.37
2019-03-23T19:17:15.347Z,40.35
2019-03-23T19:19:55.083Z,39.92
2019-03-23T19:22:34.139Z,38.28
2019-03-23T19:25:17.230Z,40.25
2019-03-23T19:27:54.662Z,39.58
2019-03-23T19:30:37.348Z,38.85
2019-03-23T19:33:16.774Z,39.55
2019-03-23T19:35:56.922Z,39.73
2019-03-23T19:38:35.384Z,41.15
2019-03-23T19:41:17.027Z,41.13
2019-03-23T19:43:55.372Z,39.25
2019-03-23T19:46:34.821Z,35.83
2019-03-23T19:49:13.585Z,35.10
2019-03-23T19:51:53.561Z,35.68
2019-03-23T19:54:33.791Z,35.55
2019-03-23T19:57:13.757Z,35.17
2019-03-23T19:59:52.704Z,34.98
2019-03-23T20:02:31.927Z,36.20
2019-03-23T20:05:10.900Z,35.85
2019-03-23T20:07:49.439Z,34.45
2019-03-23T20:10:31.585Z,33.73
2019-03-23T20:15:48.392Z,35.55
2019-03-23T20:18:28.571Z,35.63
2019-03-23T20:21:08.168Z,35.15
2019-03-23T20:23:47.206Z,34.88
2019-03-23T20:26:26.922Z,35.48
2019-03-23T20:29:09.188Z,35.30
2019-03-23T20:31:47.542Z,34.10
2019-03-23T20:34:26.411Z,35.48
2019-03-23T20:37:04.626Z,35.15
2019-03-23T20:39:43.366Z,36.20
2019-03-23T20:42:22.483Z,35.45
2019-03-23T20:45:03.971Z,35.98
2019-03-23T20:47:43.170Z,36.53
2019-03-23T20:50:21.455Z,37.65
2019-03-23T20:53:00.215Z,36.88
2019-03-23T20:55:40.181Z,37.28
2019-03-23T20:58:20.024Z,36.10
2019-03-23T21:01:00.376Z,36.08
2019-03-23T21:03:39.646Z,37.05
2019-03-23T21:06:19.272Z,36.85
2019-03-23T21:08:57.557Z,35.83
2019-03-23T21:11:36.874Z,35.23
2019-03-23T21:14:20.097Z,35.33
2019-03-23T21:16:58.689Z,35.10
2019-03-23T21:19:37.428Z,35.60
2019-03-23T21:22:17.569Z,36.05
2019-03-23T21:24:56.021Z,35.68
2019-03-23T21:27:36.700Z,36.30
2019-03-23T21:30:17.841Z,36.38
2019-03-23T21:32:59.554Z,35.23
2019-03-23T21:35:39.096Z,36.53
2019-03-23T21:38:19.669Z,36.35
2019-03-23T21:41:06.796Z,35.78
2019-03-23T21:43:45.745Z,35.35
2019-03-23T21:46:24.396Z,42.33
2019-03-23T21:49:04.035Z,35.68
2019-03-23T21:51:42.534Z,37.03
2019-03-23T21:54:23.093Z,35.50
2019-03-23T21:57:01.346Z,36.53
2019-03-23T21:59:40.954Z,36.70
2019-03-23T22:02:21.281Z,35.00
2019-03-23T22:05:02.325Z,37.50
2019-03-23T22:07:42.269Z,36.48
2019-03-23T22:10:23.061Z,36.68
2019-03-23T22:13:02.789Z,36.13
2019-03-23T22:15:42.404Z,36.30
2019-03-23T22:18:21.278Z,38.58
2019-03-23T22:21:01.436Z,37.93
2019-03-23T22:23:40.181Z,38.00
2019-03-23T22:26:19.574Z,38.50
2019-03-23T22:28:58.800Z,38.17
2019-03-23T22:31:38.796Z,39.88
2019-03-23T22:34:19.967Z,39.45
2019-03-23T22:36:58.807Z,44.80
2019-03-23T22:39:38.708Z,39.13
2019-03-23T22:42:17.909Z,39.35
2019-03-23T22:44:57.043Z,40.83
2019-03-23T22:47:40.301Z,40.92
2019-03-23T22:50:18.947Z,39.50
2019-03-23T22:53:01.628Z,39.38
2019-03-23T22:55:42.691Z,39.40
2019-03-23T22:58:22.574Z,40.35
2019-03-23T23:01:01.347Z,38.53
2019-03-23T23:03:44.328Z,38.90
2019-03-23T23:06:24.852Z,38.35
2019-03-23T23:09:06.170Z,38.28
2019-03-23T23:11:44.797Z,39.27
2019-03-23T23:14:28.410Z,38.50
2019-03-23T23:17:07.533Z,39.35
2019-03-23T23:19:46.063Z,39.18
2019-03-23T23:22:25.975Z,37.20
2019-03-23T23:25:05.712Z,38.65
2019-03-23T23:27:44.703Z,38.02
2019-03-23T23:30:23.586Z,39.08
2019-03-23T23:33:03.448Z,37.17
2019-03-23T23:35:44.874Z,38.95
2019-03-23T23:38:25.956Z,38.53
2019-03-23T23:41:06.526Z,37.58
2019-03-23T23:43:45.574Z,36.65
2019-03-23T23:46:31.654Z,36.83
2019-03-23T23:49:10.646Z,38.78
2019-03-23T23:51:50.304Z,37.25
2019-03-23T23:54:31.287Z,36.28
2019-03-23T23:57:10.965Z,36.13
2019-03-23T23:59:50.410Z,37.25
